Cherry Grove, Oregon
Current Conditions -  °F | °C
As of 4:27 AM on Friday 31 Oct 2014 (Local Time) from KHIO Reporting Station
Moderate Rain Moderate Rain  
Wind Chill: 53°   Ceiling: 300
Heat Index: 53°   Visibility: 3mi
Dew Point: 53°   Wind: 6mph
Humidity: 100%   Direction: 320°NW
Pressure: 29.68"   Gusts: NA
Location:  45.45°N, 123.24°W
Report Text: KHIO 311127Z AUTO 32005KT 3SM RA BR BKN003 BKN008 OVC014 12/12 A2968 RMK AO2 P0010 T01170117 TSNO
Loading
Personal Weather Stations






























Interactive Weather Map
Tropical Storm Tracking
New forecast layout! Learn more

10-Day Weather Forecast

Advertisements
Track Severe Weather on mobile